sensor_id;sensor_type;location;lat;lon;timestamp;P1;durP1;ratioP1;P2;durP2;ratioP2
29662;SDS011;16578;53.266;7.920;2024-02-26T00:01:40;14.50;;;9.73;;
29662;SDS011;16578;53.266;7.920;2024-02-26T00:04:08;13.60;;;9.32;;
29662;SDS011;16578;53.266;7.920;2024-02-26T00:06:34;15.18;;;9.43;;
29662;SDS011;16578;53.266;7.920;2024-02-26T00:09:00;14.07;;;9.48;;
29662;SDS011;16578;53.266;7.920;2024-02-26T00:11:27;15.80;;;9.98;;
29662;SDS011;16578;53.266;7.920;2024-02-26T00:13:53;16.10;;;10.18;;
29662;SDS011;16578;53.266;7.920;2024-02-26T00:16:18;15.32;;;8.98;;
29662;SDS011;16578;53.266;7.920;2024-02-26T00:18:44;15.25;;;9.65;;
29662;SDS011;16578;53.266;7.920;2024-02-26T00:21:09;16.50;;;9.80;;
29662;SDS011;16578;53.266;7.920;2024-02-26T00:23:35;14.65;;;9.55;;
29662;SDS011;16578;53.266;7.920;2024-02-26T00:26:01;17.25;;;10.18;;
29662;SDS011;16578;53.266;7.920;2024-02-26T00:28:26;15.05;;;10.05;;
29662;SDS011;16578;53.266;7.920;2024-02-26T00:30:54;16.77;;;10.20;;
29662;SDS011;16578;53.266;7.920;2024-02-26T00:33:21;18.30;;;10.75;;
29662;SDS011;16578;53.266;7.920;2024-02-26T00:35:47;15.40;;;10.25;;
29662;SDS011;16578;53.266;7.920;2024-02-26T00:38:13;16.50;;;10.43;;
29662;SDS011;16578;53.266;7.920;2024-02-26T00:40:39;16.85;;;11.30;;
29662;SDS011;16578;53.266;7.920;2024-02-26T00:43:05;16.08;;;10.65;;
29662;SDS011;16578;53.266;7.920;2024-02-26T00:45:32;16.42;;;10.70;;
29662;SDS011;16578;53.266;7.920;2024-02-26T00:47:58;16.67;;;10.93;;
29662;SDS011;16578;53.266;7.920;2024-02-26T00:52:51;16.52;;;10.25;;
29662;SDS011;16578;53.266;7.920;2024-02-26T00:55:17;15.52;;;10.80;;
29662;SDS011;16578;53.266;7.920;2024-02-26T00:57:43;16.33;;;9.93;;
29662;SDS011;16578;53.266;7.920;2024-02-26T01:00:08;15.52;;;9.88;;
29662;SDS011;16578;53.266;7.920;2024-02-26T01:02:34;17.98;;;10.32;;
29662;SDS011;16578;53.266;7.920;2024-02-26T01:05:01;14.43;;;9.57;;
29662;SDS011;16578;53.266;7.920;2024-02-26T01:07:27;16.20;;;10.35;;
29662;SDS011;16578;53.266;7.920;2024-02-26T01:09:53;17.00;;;11.23;;
29662;SDS011;16578;53.266;7.920;2024-02-26T01:12:19;18.83;;;13.18;;
29662;SDS011;16578;53.266;7.920;2024-02-26T01:14:44;20.85;;;12.32;;
29662;SDS011;16578;53.266;7.920;2024-02-26T01:17:10;17.55;;;10.80;;
29662;SDS011;16578;53.266;7.920;2024-02-26T01:19:35;18.85;;;11.45;;
29662;SDS011;16578;53.266;7.920;2024-02-26T01:22:01;18.25;;;11.82;;
29662;SDS011;16578;53.266;7.920;2024-02-26T01:24:27;19.63;;;11.65;;
29662;SDS011;16578;53.266;7.920;2024-02-26T01:26:54;19.27;;;12.40;;
29662;SDS011;16578;53.266;7.920;2024-02-26T01:29:19;21.70;;;12.50;;
29662;SDS011;16578;53.266;7.920;2024-02-26T01:31:45;22.48;;;12.88;;
29662;SDS011;16578;53.266;7.920;2024-02-26T01:34:11;23.75;;;14.13;;
29662;SDS011;16578;53.266;7.920;2024-02-26T01:36:36;21.67;;;13.25;;
29662;SDS011;16578;53.266;7.920;2024-02-26T01:39:02;21.00;;;13.02;;
29662;SDS011;16578;53.266;7.920;2024-02-26T01:41:28;23.30;;;13.98;;
29662;SDS011;16578;53.266;7.920;2024-02-26T01:43:54;23.90;;;14.10;;
29662;SDS011;16578;53.266;7.920;2024-02-26T01:46:19;23.27;;;14.10;;
29662;SDS011;16578;53.266;7.920;2024-02-26T01:48:45;21.95;;;13.77;;
29662;SDS011;16578;53.266;7.920;2024-02-26T01:51:12;24.63;;;14.57;;
29662;SDS011;16578;53.266;7.920;2024-02-26T01:53:40;25.75;;;15.13;;
29662;SDS011;16578;53.266;7.920;2024-02-26T01:56:06;25.85;;;14.57;;
29662;SDS011;16578;53.266;7.920;2024-02-26T01:58:32;25.48;;;15.07;;
29662;SDS011;16578;53.266;7.920;2024-02-26T02:00:59;25.98;;;15.32;;
29662;SDS011;16578;53.266;7.920;2024-02-26T02:03:27;33.23;;;15.27;;
29662;SDS011;16578;53.266;7.920;2024-02-26T02:05:54;34.13;;;15.73;;
29662;SDS011;16578;53.266;7.920;2024-02-26T02:08:19;33.50;;;16.98;;
29662;SDS011;16578;53.266;7.920;2024-02-26T02:10:45;30.98;;;16.05;;
29662;SDS011;16578;53.266;7.920;2024-02-26T02:13:13;41.10;;;17.67;;
29662;SDS011;16578;53.266;7.920;2024-02-26T02:15:38;32.42;;;17.17;;
29662;SDS011;16578;53.266;7.920;2024-02-26T02:18:04;29.98;;;16.80;;
29662;SDS011;16578;53.266;7.920;2024-02-26T02:20:34;30.98;;;16.95;;
29662;SDS011;16578;53.266;7.920;2024-02-26T02:23:00;29.60;;;16.98;;
29662;SDS011;16578;53.266;7.920;2024-02-26T02:25:25;29.05;;;16.00;;
29662;SDS011;16578;53.266;7.920;2024-02-26T02:27:51;28.73;;;15.25;;
29662;SDS011;16578;53.266;7.920;2024-02-26T02:30:19;26.27;;;15.63;;
29662;SDS011;16578;53.266;7.920;2024-02-26T02:32:46;25.33;;;13.73;;
29662;SDS011;16578;53.266;7.920;2024-02-26T02:35:11;26.23;;;13.95;;
29662;SDS011;16578;53.266;7.920;2024-02-26T02:37:37;25.85;;;14.40;;
29662;SDS011;16578;53.266;7.920;2024-02-26T02:40:03;26.45;;;14.18;;
29662;SDS011;16578;53.266;7.920;2024-02-26T02:42:30;26.33;;;14.38;;
29662;SDS011;16578;53.266;7.920;2024-02-26T02:44:55;23.67;;;13.05;;
29662;SDS011;16578;53.266;7.920;2024-02-26T02:47:21;20.00;;;11.43;;
29662;SDS011;16578;53.266;7.920;2024-02-26T02:49:47;20.58;;;12.63;;
29662;SDS011;16578;53.266;7.920;2024-02-26T02:52:12;18.10;;;10.63;;
29662;SDS011;16578;53.266;7.920;2024-02-26T02:54:38;19.65;;;11.02;;
29662;SDS011;16578;53.266;7.920;2024-02-26T02:57:06;19.58;;;10.43;;
29662;SDS011;16578;53.266;7.920;2024-02-26T02:59:32;17.63;;;10.10;;
29662;SDS011;16578;53.266;7.920;2024-02-26T03:01:57;14.35;;;8.93;;
29662;SDS011;16578;53.266;7.920;2024-02-26T03:04:23;17.48;;;10.25;;
29662;SDS011;16578;53.266;7.920;2024-02-26T03:06:49;14.85;;;9.40;;
29662;SDS011;16578;53.266;7.920;2024-02-26T03:09:14;14.50;;;9.07;;
29662;SDS011;16578;53.266;7.920;2024-02-26T03:11:40;11.35;;;8.18;;
29662;SDS011;16578;53.266;7.920;2024-02-26T03:14:05;13.02;;;9.07;;
29662;SDS011;16578;53.266;7.920;2024-02-26T03:16:31;11.60;;;7.57;;
29662;SDS011;16578;53.266;7.920;2024-02-26T03:18:57;11.35;;;7.32;;
29662;SDS011;16578;53.266;7.920;2024-02-26T03:21:22;10.27;;;7.10;;
29662;SDS011;16578;53.266;7.920;2024-02-26T03:23:49;11.38;;;7.13;;
29662;SDS011;16578;53.266;7.920;2024-02-26T03:26:14;11.35;;;6.50;;
29662;SDS011;16578;53.266;7.920;2024-02-26T03:28:40;11.02;;;6.78;;
29662;SDS011;16578;53.266;7.920;2024-02-26T03:31:06;10.27;;;7.03;;
29662;SDS011;16578;53.266;7.920;2024-02-26T03:33:31;9.35;;;6.32;;
29662;SDS011;16578;53.266;7.920;2024-02-26T03:35:57;8.75;;;5.80;;
29662;SDS011;16578;53.266;7.920;2024-02-26T03:38:23;10.75;;;6.50;;
29662;SDS011;16578;53.266;7.920;2024-02-26T03:40:48;8.20;;;6.32;;
29662;SDS011;16578;53.266;7.920;2024-02-26T03:43:14;10.50;;;5.88;;
29662;SDS011;16578;53.266;7.920;2024-02-26T03:45:39;9.05;;;6.20;;
29662;SDS011;16578;53.266;7.920;2024-02-26T03:48:05;8.10;;;5.95;;
29662;SDS011;16578;53.266;7.920;2024-02-26T03:50:31;7.50;;;5.50;;
29662;SDS011;16578;53.266;7.920;2024-02-26T03:52:57;8.15;;;5.50;;
29662;SDS011;16578;53.266;7.920;2024-02-26T03:55:23;7.70;;;5.63;;
29662;SDS011;16578;53.266;7.920;2024-02-26T03:57:50;7.40;;;5.57;;
29662;SDS011;16578;53.266;7.920;2024-02-26T04:00:17;7.93;;;6.03;;
29662;SDS011;16578;53.266;7.920;2024-02-26T04:02:42;7.70;;;5.47;;
29662;SDS011;16578;53.266;7.920;2024-02-26T04:05:11;6.93;;;5.07;;
29662;SDS011;16578;53.266;7.920;2024-02-26T04:07:38;10.00;;;6.13;;
29662;SDS011;16578;53.266;7.920;2024-02-26T04:10:08;7.03;;;5.10;;
29662;SDS011;16578;53.266;7.920;2024-02-26T04:12:34;7.28;;;5.65;;
29662;SDS011;16578;53.266;7.920;2024-02-26T04:15:00;6.85;;;5.43;;
29662;SDS011;16578;53.266;7.920;2024-02-26T04:17:25;6.65;;;5.57;;
29662;SDS011;16578;53.266;7.920;2024-02-26T04:19:51;8.05;;;5.85;;
29662;SDS011;16578;53.266;7.920;2024-02-26T04:22:17;8.85;;;5.72;;
29662;SDS011;16578;53.266;7.920;2024-02-26T04:24:42;8.55;;;6.40;;
29662;SDS011;16578;53.266;7.920;2024-02-26T04:27:08;7.32;;;5.75;;
29662;SDS011;16578;53.266;7.920;2024-02-26T04:29:33;8.30;;;6.00;;
29662;SDS011;16578;53.266;7.920;2024-02-26T04:31:59;8.38;;;6.25;;
29662;SDS011;16578;53.266;7.920;2024-02-26T04:34:25;9.25;;;6.82;;
29662;SDS011;16578;53.266;7.920;2024-02-26T04:36:50;8.55;;;6.60;;
29662;SDS011;16578;53.266;7.920;2024-02-26T04:39:16;8.70;;;6.60;;
29662;SDS011;16578;53.266;7.920;2024-02-26T04:41:41;10.73;;;6.65;;
29662;SDS011;16578;53.266;7.920;2024-02-26T04:44:07;8.85;;;6.50;;
29662;SDS011;16578;53.266;7.920;2024-02-26T04:46:33;8.73;;;5.90;;
29662;SDS011;16578;53.266;7.920;2024-02-26T04:48:58;7.65;;;6.05;;
29662;SDS011;16578;53.266;7.920;2024-02-26T04:51:24;8.05;;;5.88;;
29662;SDS011;16578;53.266;7.920;2024-02-26T04:53:49;9.30;;;6.10;;
29662;SDS011;16578;53.266;7.920;2024-02-26T04:56:15;10.20;;;5.63;;
29662;SDS011;16578;53.266;7.920;2024-02-26T04:58:40;8.50;;;6.07;;
29662;SDS011;16578;53.266;7.920;2024-02-26T05:01:06;8.07;;;5.32;;
29662;SDS011;16578;53.266;7.920;2024-02-26T05:03:32;7.93;;;4.90;;
29662;SDS011;16578;53.266;7.920;2024-02-26T05:05:57;7.78;;;5.97;;
29662;SDS011;16578;53.266;7.920;2024-02-26T05:08:23;8.55;;;5.68;;
29662;SDS011;16578;53.266;7.920;2024-02-26T05:10:49;6.63;;;5.00;;
29662;SDS011;16578;53.266;7.920;2024-02-26T05:13:14;6.88;;;5.40;;
29662;SDS011;16578;53.266;7.920;2024-02-26T05:15:42;6.25;;;4.88;;
29662;SDS011;16578;53.266;7.920;2024-02-26T05:18:08;7.78;;;5.50;;
29662;SDS011;16578;53.266;7.920;2024-02-26T05:20:34;6.45;;;4.60;;
29662;SDS011;16578;53.266;7.920;2024-02-26T05:23:03;7.65;;;5.07;;
29662;SDS011;16578;53.266;7.920;2024-02-26T05:25:29;5.60;;;4.68;;
29662;SDS011;16578;53.266;7.920;2024-02-26T05:27:55;6.10;;;4.53;;
29662;SDS011;16578;53.266;7.920;2024-02-26T05:30:20;6.93;;;4.85;;
29662;SDS011;16578;53.266;7.920;2024-02-26T05:32:46;6.03;;;4.50;;
29662;SDS011;16578;53.266;7.920;2024-02-26T05:35:12;5.88;;;4.47;;
29662;SDS011;16578;53.266;7.920;2024-02-26T05:37:37;5.85;;;4.35;;
29662;SDS011;16578;53.266;7.920;2024-02-26T05:40:03;5.03;;;4.30;;
29662;SDS011;16578;53.266;7.920;2024-02-26T05:42:30;6.85;;;4.20;;
29662;SDS011;16578;53.266;7.920;2024-02-26T05:44:56;5.22;;;4.10;;
29662;SDS011;16578;53.266;7.920;2024-02-26T05:47:22;5.95;;;4.10;;
29662;SDS011;16578;53.266;7.920;2024-02-26T05:49:48;5.47;;;4.00;;
29662;SDS011;16578;53.266;7.920;2024-02-26T05:52:14;6.43;;;4.25;;
29662;SDS011;16578;53.266;7.920;2024-02-26T05:54:39;5.03;;;3.78;;
29662;SDS011;16578;53.266;7.920;2024-02-26T05:57:05;7.75;;;4.55;;
29662;SDS011;16578;53.266;7.920;2024-02-26T05:59:30;6.03;;;4.38;;
29662;SDS011;16578;53.266;7.920;2024-02-26T06:01:56;5.93;;;4.38;;
29662;SDS011;16578;53.266;7.920;2024-02-26T06:04:21;6.25;;;4.20;;
29662;SDS011;16578;53.266;7.920;2024-02-26T06:06:47;5.32;;;4.25;;
29662;SDS011;16578;53.266;7.920;2024-02-26T06:09:13;7.85;;;4.90;;
29662;SDS011;16578;53.266;7.920;2024-02-26T06:11:38;5.20;;;3.63;;
29662;SDS011;16578;53.266;7.920;2024-02-26T06:14:04;5.82;;;3.80;;
29662;SDS011;16578;53.266;7.920;2024-02-26T06:16:30;5.93;;;3.85;;
29662;SDS011;16578;53.266;7.920;2024-02-26T06:18:55;7.53;;;4.30;;
29662;SDS011;16578;53.266;7.920;2024-02-26T06:21:21;5.75;;;4.07;;
29662;SDS011;16578;53.266;7.920;2024-02-26T06:23:47;4.95;;;3.60;;
29662;SDS011;16578;53.266;7.920;2024-02-26T06:26:13;5.88;;;3.97;;
29662;SDS011;16578;53.266;7.920;2024-02-26T06:28:38;4.65;;;3.75;;
29662;SDS011;16578;53.266;7.920;2024-02-26T06:31:05;7.60;;;3.88;;
29662;SDS011;16578;53.266;7.920;2024-02-26T06:33:31;5.30;;;3.85;;
29662;SDS011;16578;53.266;7.920;2024-02-26T06:35:57;6.63;;;3.75;;
29662;SDS011;16578;53.266;7.920;2024-02-26T06:38:23;4.57;;;3.47;;
29662;SDS011;16578;53.266;7.920;2024-02-26T06:40:49;4.68;;;3.65;;
29662;SDS011;16578;53.266;7.920;2024-02-26T06:43:15;7.88;;;4.03;;
29662;SDS011;16578;53.266;7.920;2024-02-26T06:45:41;5.35;;;3.88;;
29662;SDS011;16578;53.266;7.920;2024-02-26T06:48:06;5.80;;;3.55;;
29662;SDS011;16578;53.266;7.920;2024-02-26T06:50:32;4.40;;;3.55;;
29662;SDS011;16578;53.266;7.920;2024-02-26T06:52:58;4.20;;;3.42;;
29662;SDS011;16578;53.266;7.920;2024-02-26T06:55:23;5.93;;;3.78;;
29662;SDS011;16578;53.266;7.920;2024-02-26T06:57:49;5.40;;;4.00;;
29662;SDS011;16578;53.266;7.920;2024-02-26T07:00:15;5.05;;;4.03;;
29662;SDS011;16578;53.266;7.920;2024-02-26T07:02:41;4.55;;;3.67;;
29662;SDS011;16578;53.266;7.920;2024-02-26T07:05:08;5.65;;;3.60;;
29662;SDS011;16578;53.266;7.920;2024-02-26T07:07:34;4.55;;;3.72;;
29662;SDS011;16578;53.266;7.920;2024-02-26T07:10:00;6.53;;;3.92;;
29662;SDS011;16578;53.266;7.920;2024-02-26T07:12:28;4.95;;;3.83;;
29662;SDS011;16578;53.266;7.920;2024-02-26T07:14:54;5.40;;;4.03;;
29662;SDS011;16578;53.266;7.920;2024-02-26T07:17:20;4.93;;;3.88;;
29662;SDS011;16578;53.266;7.920;2024-02-26T07:19:46;3.95;;;3.25;;
29662;SDS011;16578;53.266;7.920;2024-02-26T07:22:11;5.25;;;3.78;;
29662;SDS011;16578;53.266;7.920;2024-02-26T07:24:37;5.00;;;4.10;;
29662;SDS011;16578;53.266;7.920;2024-02-26T07:27:03;6.35;;;4.10;;
29662;SDS011;16578;53.266;7.920;2024-02-26T07:29:28;4.65;;;3.88;;
29662;SDS011;16578;53.266;7.920;2024-02-26T07:31:54;5.47;;;4.13;;
29662;SDS011;16578;53.266;7.920;2024-02-26T07:34:20;5.50;;;4.18;;
29662;SDS011;16578;53.266;7.920;2024-02-26T07:36:52;4.32;;;3.33;;
29662;SDS011;16578;53.266;7.920;2024-02-26T07:39:18;3.80;;;3.42;;
29662;SDS011;16578;53.266;7.920;2024-02-26T07:41:44;4.85;;;3.72;;
29662;SDS011;16578;53.266;7.920;2024-02-26T07:44:12;4.75;;;3.97;;
29662;SDS011;16578;53.266;7.920;2024-02-26T07:46:37;4.43;;;3.83;;
29662;SDS011;16578;53.266;7.920;2024-02-26T07:49:03;4.43;;;3.55;;
29662;SDS011;16578;53.266;7.920;2024-02-26T07:51:28;4.60;;;4.00;;
29662;SDS011;16578;53.266;7.920;2024-02-26T07:53:54;5.55;;;4.45;;
29662;SDS011;16578;53.266;7.920;2024-02-26T07:56:19;4.70;;;3.75;;
29662;SDS011;16578;53.266;7.920;2024-02-26T07:58:45;5.15;;;4.13;;
29662;SDS011;16578;53.266;7.920;2024-02-26T08:01:13;4.38;;;3.38;;
29662;SDS011;16578;53.266;7.920;2024-02-26T08:06:05;3.60;;;2.90;;
29662;SDS011;16578;53.266;7.920;2024-02-26T08:08:30;3.58;;;3.00;;
29662;SDS011;16578;53.266;7.920;2024-02-26T08:10:56;4.60;;;3.25;;
29662;SDS011;16578;53.266;7.920;2024-02-26T08:13:22;4.40;;;3.20;;
29662;SDS011;16578;53.266;7.920;2024-02-26T08:15:47;3.67;;;3.20;;
29662;SDS011;16578;53.266;7.920;2024-02-26T08:18:14;3.83;;;3.00;;
29662;SDS011;16578;53.266;7.920;2024-02-26T08:20:42;4.70;;;3.70;;
29662;SDS011;16578;53.266;7.920;2024-02-26T08:23:08;3.75;;;3.08;;
29662;SDS011;16578;53.266;7.920;2024-02-26T08:25:36;4.30;;;3.40;;
29662;SDS011;16578;53.266;7.920;2024-02-26T08:28:04;3.72;;;3.05;;
29662;SDS011;16578;53.266;7.920;2024-02-26T08:30:30;4.43;;;3.13;;
29662;SDS011;16578;53.266;7.920;2024-02-26T08:32:59;5.13;;;3.45;;
29662;SDS011;16578;53.266;7.920;2024-02-26T08:35:28;3.20;;;2.90;;
29662;SDS011;16578;53.266;7.920;2024-02-26T08:37:56;5.28;;;3.35;;
29662;SDS011;16578;53.266;7.920;2024-02-26T08:40:21;3.75;;;3.03;;
29662;SDS011;16578;53.266;7.920;2024-02-26T08:42:47;4.10;;;3.08;;
29662;SDS011;16578;53.266;7.920;2024-02-26T08:45:19;3.83;;;2.85;;
29662;SDS011;16578;53.266;7.920;2024-02-26T08:47:46;3.42;;;3.13;;
29662;SDS011;16578;53.266;7.920;2024-02-26T08:50:13;3.78;;;3.08;;
29662;SDS011;16578;53.266;7.920;2024-02-26T08:52:42;3.35;;;2.88;;
29662;SDS011;16578;53.266;7.920;2024-02-26T08:55:15;5.60;;;3.45;;
29662;SDS011;16578;53.266;7.920;2024-02-26T08:57:42;4.10;;;2.97;;
29662;SDS011;16578;53.266;7.920;2024-02-26T09:00:07;3.70;;;3.05;;
29662;SDS011;16578;53.266;7.920;2024-02-26T09:02:33;4.90;;;3.03;;
29662;SDS011;16578;53.266;7.920;2024-02-26T09:05:04;3.30;;;2.83;;
29662;SDS011;16578;53.266;7.920;2024-02-26T09:07:30;4.22;;;3.22;;
29662;SDS011;16578;53.266;7.920;2024-02-26T09:09:59;3.83;;;2.80;;
29662;SDS011;16578;53.266;7.920;2024-02-26T09:12:27;3.60;;;3.25;;
29662;SDS011;16578;53.266;7.920;2024-02-26T09:14:56;4.22;;;3.38;;
29662;SDS011;16578;53.266;7.920;2024-02-26T09:17:27;4.10;;;3.67;;
29662;SDS011;16578;53.266;7.920;2024-02-26T09:19:53;4.07;;;3.67;;
29662;SDS011;16578;53.266;7.920;2024-02-26T09:22:18;4.00;;;3.55;;
29662;SDS011;16578;53.266;7.920;2024-02-26T09:24:44;4.28;;;3.60;;
29662;SDS011;16578;53.266;7.920;2024-02-26T09:27:12;4.32;;;3.50;;
29662;SDS011;16578;53.266;7.920;2024-02-26T09:29:43;4.60;;;3.47;;
29662;SDS011;16578;53.266;7.920;2024-02-26T09:32:08;4.72;;;3.88;;
29662;SDS011;16578;53.266;7.920;2024-02-26T09:34:34;4.78;;;3.83;;
29662;SDS011;16578;53.266;7.920;2024-02-26T09:37:00;5.15;;;4.05;;
29662;SDS011;16578;53.266;7.920;2024-02-26T09:39:26;5.82;;;4.28;;
29662;SDS011;16578;53.266;7.920;2024-02-26T09:41:52;5.50;;;4.53;;
29662;SDS011;16578;53.266;7.920;2024-02-26T09:44:19;6.25;;;5.05;;
29662;SDS011;16578;53.266;7.920;2024-02-26T09:46:48;5.90;;;4.63;;
29662;SDS011;16578;53.266;7.920;2024-02-26T09:49:16;8.30;;;4.90;;
29662;SDS011;16578;53.266;7.920;2024-02-26T09:51:44;6.97;;;4.72;;
29662;SDS011;16578;53.266;7.920;2024-02-26T09:54:12;7.72;;;4.63;;
29662;SDS011;16578;53.266;7.920;2024-02-26T09:56:39;6.28;;;4.57;;
29662;SDS011;16578;53.266;7.920;2024-02-26T09:59:06;5.70;;;4.70;;
29662;SDS011;16578;53.266;7.920;2024-02-26T10:01:38;6.45;;;4.88;;
29662;SDS011;16578;53.266;7.920;2024-02-26T10:04:07;7.10;;;4.93;;
29662;SDS011;16578;53.266;7.920;2024-02-26T10:06:34;5.60;;;4.43;;
29662;SDS011;16578;53.266;7.920;2024-02-26T10:09:02;5.32;;;4.22;;
29662;SDS011;16578;53.266;7.920;2024-02-26T10:11:34;5.85;;;4.40;;
29662;SDS011;16578;53.266;7.920;2024-02-26T10:14:01;6.55;;;4.60;;
29662;SDS011;16578;53.266;7.920;2024-02-26T10:16:27;5.07;;;4.03;;
29662;SDS011;16578;53.266;7.920;2024-02-26T10:18:53;5.05;;;4.53;;
29662;SDS011;16578;53.266;7.920;2024-02-26T10:21:19;5.32;;;3.95;;
29662;SDS011;16578;53.266;7.920;2024-02-26T10:23:46;6.13;;;4.60;;
29662;SDS011;16578;53.266;7.920;2024-02-26T10:26:13;7.70;;;5.05;;
29662;SDS011;16578;53.266;7.920;2024-02-26T10:28:39;7.47;;;5.25;;
29662;SDS011;16578;53.266;7.920;2024-02-26T10:31:06;7.45;;;5.38;;
29662;SDS011;16578;53.266;7.920;2024-02-26T10:33:33;6.78;;;4.88;;
29662;SDS011;16578;53.266;7.920;2024-02-26T10:36:03;6.78;;;4.55;;
29662;SDS011;16578;53.266;7.920;2024-02-26T10:38:30;8.38;;;5.82;;
29662;SDS011;16578;53.266;7.920;2024-02-26T10:40:57;6.57;;;5.05;;
29662;SDS011;16578;53.266;7.920;2024-02-26T10:43:23;8.02;;;5.63;;
29662;SDS011;16578;53.266;7.920;2024-02-26T10:45:50;6.65;;;5.18;;
29662;SDS011;16578;53.266;7.920;2024-02-26T10:48:16;7.18;;;5.45;;
29662;SDS011;16578;53.266;7.920;2024-02-26T10:50:43;6.80;;;5.53;;
29662;SDS011;16578;53.266;7.920;2024-02-26T10:53:13;7.28;;;5.03;;
29662;SDS011;16578;53.266;7.920;2024-02-26T10:56:20;7.88;;;5.07;;
29662;SDS011;16578;53.266;7.920;2024-02-26T10:58:41;6.82;;;5.15;;
29662;SDS011;16578;53.266;7.920;2024-02-26T11:01:11;6.40;;;5.03;;
29662;SDS011;16578;53.266;7.920;2024-02-26T11:03:41;7.75;;;5.35;;
29662;SDS011;16578;53.266;7.920;2024-02-26T11:06:07;8.15;;;6.00;;
29662;SDS011;16578;53.266;7.920;2024-02-26T11:08:33;7.63;;;5.30;;
29662;SDS011;16578;53.266;7.920;2024-02-26T11:11:00;7.82;;;5.88;;
29662;SDS011;16578;53.266;7.920;2024-02-26T11:13:29;7.80;;;5.70;;
29662;SDS011;16578;53.266;7.920;2024-02-26T11:15:56;7.95;;;5.70;;
29662;SDS011;16578;53.266;7.920;2024-02-26T11:18:22;9.55;;;6.35;;
29662;SDS011;16578;53.266;7.920;2024-02-26T11:20:50;9.30;;;5.82;;
29662;SDS011;16578;53.266;7.920;2024-02-26T11:23:20;7.53;;;5.68;;
29662;SDS011;16578;53.266;7.920;2024-02-26T11:25:45;7.28;;;5.75;;
29662;SDS011;16578;53.266;7.920;2024-02-26T11:28:13;8.07;;;5.82;;
29662;SDS011;16578;53.266;7.920;2024-02-26T11:30:41;8.07;;;5.63;;
29662;SDS011;16578;53.266;7.920;2024-02-26T11:33:09;7.25;;;5.70;;
29662;SDS011;16578;53.266;7.920;2024-02-26T11:35:37;8.80;;;6.30;;
29662;SDS011;16578;53.266;7.920;2024-02-26T11:38:03;9.13;;;6.55;;
29662;SDS011;16578;53.266;7.920;2024-02-26T11:40:30;7.85;;;5.70;;
29662;SDS011;16578;53.266;7.920;2024-02-26T11:42:57;8.45;;;6.07;;
29662;SDS011;16578;53.266;7.920;2024-02-26T11:48:05;7.65;;;6.32;;
29662;SDS011;16578;53.266;7.920;2024-02-26T11:50:41;9.02;;;6.68;;
29662;SDS011;16578;53.266;7.920;2024-02-26T11:53:26;9.88;;;6.82;;
29662;SDS011;16578;53.266;7.920;2024-02-26T11:56:12;10.35;;;8.00;;
29662;SDS011;16578;53.266;7.920;2024-02-26T11:58:39;11.38;;;8.07;;
29662;SDS011;16578;53.266;7.920;2024-02-26T12:01:05;11.68;;;7.95;;
29662;SDS011;16578;53.266;7.920;2024-02-26T12:03:51;9.50;;;7.55;;
29662;SDS011;16578;53.266;7.920;2024-02-26T12:06:19;12.18;;;8.32;;
29662;SDS011;16578;53.266;7.920;2024-02-26T12:08:46;10.05;;;7.72;;
29662;SDS011;16578;53.266;7.920;2024-02-26T12:11:15;10.73;;;8.07;;
29662;SDS011;16578;53.266;7.920;2024-02-26T12:13:41;9.93;;;7.43;;
29662;SDS011;16578;53.266;7.920;2024-02-26T12:16:07;8.20;;;6.40;;
29662;SDS011;16578;53.266;7.920;2024-02-26T12:18:34;9.15;;;6.70;;
29662;SDS011;16578;53.266;7.920;2024-02-26T12:21:00;9.73;;;6.97;;
29662;SDS011;16578;53.266;7.920;2024-02-26T12:23:27;7.38;;;5.78;;
29662;SDS011;16578;53.266;7.920;2024-02-26T12:25:53;9.80;;;6.93;;
29662;SDS011;16578;53.266;7.920;2024-02-26T12:28:19;9.75;;;6.70;;
29662;SDS011;16578;53.266;7.920;2024-02-26T12:30:44;8.80;;;6.72;;
29662;SDS011;16578;53.266;7.920;2024-02-26T12:33:11;11.50;;;7.80;;
29662;SDS011;16578;53.266;7.920;2024-02-26T12:35:36;10.07;;;7.00;;
29662;SDS011;16578;53.266;7.920;2024-02-26T12:38:02;10.43;;;7.35;;
29662;SDS011;16578;53.266;7.920;2024-02-26T12:40:29;8.15;;;6.47;;
29662;SDS011;16578;53.266;7.920;2024-02-26T12:42:55;10.57;;;7.85;;
29662;SDS011;16578;53.266;7.920;2024-02-26T12:45:20;11.73;;;7.38;;
29662;SDS011;16578;53.266;7.920;2024-02-26T12:47:46;10.13;;;7.38;;
29662;SDS011;16578;53.266;7.920;2024-02-26T12:50:13;12.25;;;7.88;;
29662;SDS011;16578;53.266;7.920;2024-02-26T12:52:39;9.73;;;7.22;;
29662;SDS011;16578;53.266;7.920;2024-02-26T12:55:06;11.30;;;8.02;;
29662;SDS011;16578;53.266;7.920;2024-02-26T12:57:38;10.77;;;8.23;;
29662;SDS011;16578;53.266;7.920;2024-02-26T13:00:05;11.00;;;8.25;;
29662;SDS011;16578;53.266;7.920;2024-02-26T13:02:36;13.70;;;10.27;;
29662;SDS011;16578;53.266;7.920;2024-02-26T13:05:03;13.00;;;9.75;;
29662;SDS011;16578;53.266;7.920;2024-02-26T13:07:30;13.73;;;9.77;;
29662;SDS011;16578;53.266;7.920;2024-02-26T13:09:56;11.15;;;8.65;;
29662;SDS011;16578;53.266;7.920;2024-02-26T13:12:22;13.68;;;10.02;;
29662;SDS011;16578;53.266;7.920;2024-02-26T13:14:57;13.85;;;9.60;;
29662;SDS011;16578;53.266;7.920;2024-02-26T13:17:24;13.43;;;9.18;;
29662;SDS011;16578;53.266;7.920;2024-02-26T13:19:52;13.88;;;9.38;;
29662;SDS011;16578;53.266;7.920;2024-02-26T13:22:20;13.68;;;10.15;;
29662;SDS011;16578;53.266;7.920;2024-02-26T13:24:53;12.82;;;9.98;;
29662;SDS011;16578;53.266;7.920;2024-02-26T13:27:25;13.80;;;9.80;;
29662;SDS011;16578;53.266;7.920;2024-02-26T13:30:04;13.95;;;9.73;;
29662;SDS011;16578;53.266;7.920;2024-02-26T13:32:36;13.93;;;10.00;;
29662;SDS011;16578;53.266;7.920;2024-02-26T13:35:10;13.55;;;10.05;;
29662;SDS011;16578;53.266;7.920;2024-02-26T13:37:38;13.25;;;10.40;;
29662;SDS011;16578;53.266;7.920;2024-02-26T13:40:04;12.23;;;9.20;;
29662;SDS011;16578;53.266;7.920;2024-02-26T13:42:34;13.90;;;9.77;;
29662;SDS011;16578;53.266;7.920;2024-02-26T13:45:00;13.75;;;10.40;;
29662;SDS011;16578;53.266;7.920;2024-02-26T13:47:26;13.60;;;10.18;;
29662;SDS011;16578;53.266;7.920;2024-02-26T13:49:52;14.00;;;10.00;;
29662;SDS011;16578;53.266;7.920;2024-02-26T13:52:17;13.90;;;10.40;;
29662;SDS011;16578;53.266;7.920;2024-02-26T13:54:45;14.13;;;9.75;;
29662;SDS011;16578;53.266;7.920;2024-02-26T13:57:11;13.60;;;9.80;;
29662;SDS011;16578;53.266;7.920;2024-02-26T13:59:36;14.95;;;10.07;;
29662;SDS011;16578;53.266;7.920;2024-02-26T14:02:02;14.98;;;10.80;;
29662;SDS011;16578;53.266;7.920;2024-02-26T14:04:31;13.68;;;9.80;;
29662;SDS011;16578;53.266;7.920;2024-02-26T14:06:56;13.23;;;10.45;;
29662;SDS011;16578;53.266;7.920;2024-02-26T14:09:22;13.32;;;9.98;;
29662;SDS011;16578;53.266;7.920;2024-02-26T14:11:48;15.35;;;10.65;;
29662;SDS011;16578;53.266;7.920;2024-02-26T14:14:13;13.80;;;9.77;;
29662;SDS011;16578;53.266;7.920;2024-02-26T14:16:40;13.63;;;9.68;;
29662;SDS011;16578;53.266;7.920;2024-02-26T14:19:05;15.15;;;10.63;;
29662;SDS011;16578;53.266;7.920;2024-02-26T14:21:31;14.48;;;11.25;;
29662;SDS011;16578;53.266;7.920;2024-02-26T14:23:57;13.43;;;9.65;;
29662;SDS011;16578;53.266;7.920;2024-02-26T14:26:23;15.85;;;11.77;;
29662;SDS011;16578;53.266;7.920;2024-02-26T14:28:48;14.15;;;10.85;;
29662;SDS011;16578;53.266;7.920;2024-02-26T14:31:17;15.70;;;11.15;;
29662;SDS011;16578;53.266;7.920;2024-02-26T14:36:08;13.18;;;9.52;;
29662;SDS011;16578;53.266;7.920;2024-02-26T14:38:34;12.98;;;10.05;;
29662;SDS011;16578;53.266;7.920;2024-02-26T14:41:00;13.98;;;11.40;;
29662;SDS011;16578;53.266;7.920;2024-02-26T14:43:27;13.45;;;10.18;;
29662;SDS011;16578;53.266;7.920;2024-02-26T14:45:53;15.73;;;11.02;;